createdAt,value
2022-12-25T00:00:42.671Z,2.28
2022-12-25T00:03:09.749Z,2.22
2022-12-25T00:05:39.265Z,2.00
2022-12-25T00:08:07.069Z,2.13
2022-12-25T00:10:34.096Z,1.98
2022-12-25T00:13:01.199Z,2.40
2022-12-25T00:15:28.473Z,1.98
2022-12-25T00:17:55.346Z,2.15
2022-12-25T00:20:22.210Z,2.03
2022-12-25T00:22:49.014Z,2.25
2022-12-25T00:25:15.925Z,2.10
2022-12-25T00:27:42.840Z,2.03
2022-12-25T00:30:10.162Z,2.47
2022-12-25T00:32:37.701Z,2.10
2022-12-25T00:35:05.704Z,2.03
2022-12-25T00:37:32.525Z,2.17
2022-12-25T00:39:59.419Z,1.92
2022-12-25T00:42:27.076Z,2.20
2022-12-25T00:44:53.984Z,2.67
2022-12-25T00:47:20.828Z,2.00
2022-12-25T00:49:47.867Z,2.17
2022-12-25T00:52:14.763Z,2.05
2022-12-25T00:54:41.615Z,2.30
2022-12-25T00:57:08.465Z,2.47
2022-12-25T00:59:35.857Z,2.35
2022-12-25T01:02:22.996Z,2.50
2022-12-25T01:04:51.493Z,2.58
2022-12-25T01:07:19.360Z,2.50
2022-12-25T01:10:06.221Z,2.60
2022-12-25T01:12:34.979Z,2.40
2022-12-25T01:15:02.131Z,3.80
2022-12-25T01:17:29.065Z,2.60
2022-12-25T01:19:55.855Z,2.58
2022-12-25T01:22:22.661Z,2.38
2022-12-25T01:24:49.766Z,2.42
2022-12-25T01:27:16.870Z,2.78
2022-12-25T01:29:45.326Z,2.90
2022-12-25T01:32:12.155Z,2.50
2022-12-25T01:34:39.350Z,2.78
2022-12-25T01:37:07.236Z,2.67
2022-12-25T01:39:34.708Z,2.80
2022-12-25T01:42:01.562Z,2.70
2022-12-25T01:44:37.472Z,2.70
2022-12-25T01:47:06.185Z,2.80
2022-12-25T01:49:38.817Z,2.90
2022-12-25T01:52:14.918Z,2.95
2022-12-25T01:54:50.591Z,2.90
2022-12-25T01:57:23.860Z,2.78
2022-12-25T01:59:51.411Z,2.78
2022-12-25T02:02:18.443Z,2.85
2022-12-25T02:04:55.578Z,2.67
2022-12-25T02:07:25.336Z,2.92
2022-12-25T02:09:52.792Z,2.90
2022-12-25T02:12:19.565Z,3.63
2022-12-25T02:14:48.776Z,3.05
2022-12-25T02:17:31.695Z,3.22
2022-12-25T02:20:23.180Z,3.17
2022-12-25T02:23:05.802Z,3.22
2022-12-25T02:25:48.284Z,4.05
2022-12-25T02:28:27.041Z,3.33
2022-12-25T02:31:01.319Z,3.83
2022-12-25T02:33:55.202Z,3.47
2022-12-25T02:36:28.105Z,3.40
2022-12-25T02:39:20.965Z,3.65
2022-12-25T02:41:52.162Z,3.38
2022-12-25T02:44:41.961Z,3.20
2022-12-25T02:47:29.622Z,3.25
2022-12-25T02:50:16.339Z,3.20
2022-12-25T02:53:03.465Z,2.90
2022-12-25T02:55:57.120Z,2.75
2022-12-25T02:58:45.206Z,3.10
2022-12-25T03:01:38.371Z,2.85
2022-12-25T03:04:28.310Z,2.65
2022-12-25T03:07:06.442Z,3.15
2022-12-25T03:10:01.045Z,3.13
2022-12-25T03:12:50.162Z,2.90
2022-12-25T03:15:38.072Z,2.90
2022-12-25T03:18:10.195Z,2.80
2022-12-25T03:23:48.200Z,2.55
2022-12-25T03:26:33.715Z,2.95
2022-12-25T03:29:00.544Z,2.60
2022-12-25T03:31:38.856Z,2.90
2022-12-25T03:34:51.336Z,3.30
2022-12-25T03:37:42.563Z,3.50
2022-12-25T03:40:56.405Z,3.10
2022-12-25T03:44:06.461Z,2.90
2022-12-25T03:46:55.482Z,3.13
2022-12-25T03:49:45.819Z,3.03
2022-12-25T03:52:35.033Z,3.05
2022-12-25T03:55:25.095Z,3.00
2022-12-25T03:58:10.408Z,2.50
2022-12-25T04:00:55.997Z,2.95
2022-12-25T04:03:41.741Z,2.75
2022-12-25T04:06:27.442Z,2.97
2022-12-25T04:09:13.196Z,3.08
2022-12-25T04:12:02.546Z,3.30
2022-12-25T04:14:48.720Z,3.20
2022-12-25T04:17:34.452Z,3.22
2022-12-25T04:20:20.034Z,6.53
2022-12-25T04:23:05.381Z,3.03
2022-12-25T04:25:51.292Z,3.40
2022-12-25T04:28:36.817Z,4.32
2022-12-25T04:31:22.164Z,3.33
2022-12-25T04:34:07.673Z,3.03
2022-12-25T04:36:34.599Z,5.60
2022-12-25T04:39:01.410Z,21.55
2022-12-25T04:41:28.349Z,41.28
2022-12-25T04:43:55.204Z,13.40
2022-12-25T04:46:22.301Z,30.67
2022-12-25T04:48:49.174Z,13.90
2022-12-25T04:51:25.130Z,5.97
2022-12-25T04:53:53.433Z,4.82
2022-12-25T04:56:21.280Z,4.97
2022-12-25T04:58:49.204Z,6.00
2022-12-25T05:01:16.741Z,3.97
2022-12-25T05:03:43.920Z,4.90
2022-12-25T05:06:11.097Z,5.63
2022-12-25T05:08:38.026Z,4.13
2022-12-25T05:11:07.001Z,3.50
2022-12-25T05:13:33.972Z,4.85
2022-12-25T05:16:01.173Z,4.22
2022-12-25T05:18:28.266Z,4.70
2022-12-25T05:20:55.579Z,5.13
2022-12-25T05:23:23.677Z,5.47
2022-12-25T05:25:50.758Z,3.72
2022-12-25T05:28:17.738Z,3.90
2022-12-25T05:30:44.617Z,2.90
2022-12-25T05:33:11.524Z,3.25
2022-12-25T05:35:39.301Z,2.80
2022-12-25T05:38:07.991Z,3.13
2022-12-25T05:40:35.072Z,3.67
2022-12-25T05:43:01.947Z,3.75
2022-12-25T05:45:28.853Z,4.43
2022-12-25T05:47:55.666Z,3.47
2022-12-25T05:50:22.542Z,3.33
2022-12-25T05:53:08.911Z,3.35
2022-12-25T05:58:04.573Z,3.70
2022-12-25T06:00:32.291Z,4.50
2022-12-25T06:02:59.369Z,5.10
2022-12-25T06:05:26.636Z,4.90
2022-12-25T06:07:53.498Z,6.57
2022-12-25T06:10:20.464Z,4.22
2022-12-25T06:12:47.306Z,3.42
2022-12-25T06:15:14.459Z,4.70
2022-12-25T06:17:41.310Z,3.80
2022-12-25T06:20:08.810Z,3.50
2022-12-25T06:22:35.901Z,3.65
2022-12-25T06:25:03.075Z,4.20
2022-12-25T06:27:29.899Z,7.95
2022-12-25T06:29:56.809Z,13.93
2022-12-25T06:32:23.725Z,7.38
2022-12-25T06:34:50.952Z,4.00
2022-12-25T06:37:17.822Z,4.53
2022-12-25T06:39:44.623Z,3.55
2022-12-25T06:42:11.517Z,3.15
2022-12-25T06:44:38.473Z,5.10
2022-12-25T06:47:05.697Z,4.47
2022-12-25T06:49:32.522Z,5.05
2022-12-25T06:51:59.403Z,4.70
2022-12-25T06:54:27.538Z,5.07
2022-12-25T06:56:54.369Z,5.80
2022-12-25T06:59:21.492Z,3.15
2022-12-25T07:01:55.014Z,3.60
2022-12-25T07:04:38.163Z,3.35
2022-12-25T07:07:09.297Z,4.78
2022-12-25T07:09:38.989Z,3.03
2022-12-25T07:12:23.722Z,3.95
2022-12-25T07:14:53.396Z,3.35
2022-12-25T07:17:21.182Z,2.85
2022-12-25T07:19:48.269Z,3.30
2022-12-25T07:22:15.985Z,4.47
2022-12-25T07:24:43.291Z,9.40
2022-12-25T07:27:10.250Z,9.98
2022-12-25T07:29:37.156Z,5.32
2022-12-25T07:32:04.341Z,4.03
2022-12-25T07:34:31.279Z,3.13
2022-12-25T07:36:58.091Z,2.13
2022-12-25T07:39:24.966Z,2.60
2022-12-25T07:41:51.943Z,3.15
2022-12-25T07:44:18.860Z,3.08
2022-12-25T07:46:46.058Z,2.90
2022-12-25T07:49:13.053Z,2.63
2022-12-25T07:51:40.115Z,2.92
2022-12-25T07:54:07.207Z,2.20
2022-12-25T07:56:34.257Z,3.22
2022-12-25T07:59:01.211Z,2.95
2022-12-25T08:01:29.882Z,6.90
2022-12-25T08:04:02.039Z,7.65
2022-12-25T08:06:34.119Z,5.38
2022-12-25T08:11:32.399Z,5.13
2022-12-25T08:13:59.678Z,2.97
2022-12-25T08:16:26.852Z,8.68
2022-12-25T08:18:54.160Z,3.35
2022-12-25T08:21:21.083Z,4.13
2022-12-25T08:23:48.462Z,2.00
2022-12-25T08:26:20.956Z,2.63
2022-12-25T08:28:49.073Z,4.40
2022-12-25T08:31:22.382Z,3.28
2022-12-25T08:33:51.067Z,2.75
2022-12-25T08:36:18.288Z,2.92
2022-12-25T08:38:45.871Z,2.80
2022-12-25T08:41:13.785Z,5.07
2022-12-25T08:43:40.776Z,11.35
2022-12-25T08:46:08.147Z,3.80
2022-12-25T08:48:35.210Z,4.75
2022-12-25T08:51:03.498Z,3.00
2022-12-25T08:53:30.844Z,2.90
2022-12-25T08:56:04.615Z,1.90
2022-12-25T08:58:32.006Z,2.35
2022-12-25T09:00:58.943Z,4.47
2022-12-25T09:03:26.409Z,2.72
2022-12-25T09:05:54.353Z,3.75
2022-12-25T09:08:21.971Z,2.20
2022-12-25T09:10:49.427Z,5.82
2022-12-25T09:13:16.358Z,4.97
2022-12-25T09:15:43.470Z,4.18
2022-12-25T09:18:10.384Z,5.35
2022-12-25T09:20:37.283Z,3.35
2022-12-25T09:23:08.509Z,3.47
2022-12-25T09:25:38.658Z,3.22
2022-12-25T09:28:05.564Z,4.45
2022-12-25T09:30:32.434Z,2.65
2022-12-25T09:32:59.357Z,3.63
2022-12-25T09:35:26.273Z,2.65
2022-12-25T09:37:53.081Z,1.92
2022-12-25T09:40:23.238Z,3.33
2022-12-25T09:42:54.326Z,3.85
2022-12-25T09:45:36.056Z,3.08
2022-12-25T09:48:03.311Z,4.38
2022-12-25T09:50:55.442Z,2.00
2022-12-25T09:53:30.272Z,1.63
2022-12-25T09:56:27.376Z,2.42
2022-12-25T09:58:54.975Z,1.70
2022-12-25T10:01:27.539Z,3.00
2022-12-25T10:04:05.932Z,1.83
2022-12-25T10:07:09.343Z,7.35
2022-12-25T10:10:14.398Z,6.45
2022-12-25T10:12:50.039Z,2.15
2022-12-25T10:15:25.967Z,2.17
2022-12-25T10:17:52.777Z,2.10
2022-12-25T10:20:50.434Z,3.42
2022-12-25T10:23:29.274Z,2.95
2022-12-25T10:25:56.881Z,3.00
2022-12-25T10:28:45.724Z,4.05
2022-12-25T10:31:22.457Z,6.03
2022-12-25T10:33:51.509Z,2.83
2022-12-25T10:36:21.381Z,2.33
2022-12-25T10:39:49.210Z,4.35
2022-12-25T10:42:39.132Z,3.83
2022-12-25T10:45:09.313Z,9.15
2022-12-25T10:47:42.252Z,27.42
2022-12-25T10:50:18.456Z,26.92
2022-12-25T10:52:57.010Z,22.42
2022-12-25T10:55:28.750Z,2.10
2022-12-25T10:57:58.075Z,1.60
2022-12-25T11:00:28.026Z,17.92
2022-12-25T11:02:55.558Z,9.77
2022-12-25T11:05:30.204Z,3.30
2022-12-25T11:08:00.275Z,2.45
2022-12-25T11:10:32.929Z,3.65
2022-12-25T11:13:01.312Z,2.10
2022-12-25T11:15:44.866Z,2.92
2022-12-25T11:18:23.832Z,3.00
2022-12-25T11:20:56.111Z,2.30
2022-12-25T11:23:25.090Z,4.00
2022-12-25T11:25:58.891Z,2.00
2022-12-25T11:28:27.168Z,2.78
2022-12-25T11:31:13.530Z,2.13
2022-12-25T11:33:51.185Z,2.40
2022-12-25T11:36:24.821Z,2.50
2022-12-25T11:38:52.417Z,3.58
2022-12-25T11:41:31.233Z,5.47
2022-12-25T11:44:02.289Z,8.27
2022-12-25T11:46:33.528Z,3.28
2022-12-25T11:49:08.459Z,4.18
2022-12-25T11:51:43.346Z,4.05
2022-12-25T11:54:24.517Z,2.58
2022-12-25T11:56:52.301Z,2.30
2022-12-25T11:59:51.531Z,5.80
2022-12-25T12:02:35.310Z,4.10
2022-12-25T12:05:45.369Z,6.85
2022-12-25T12:08:14.212Z,1.95
2022-12-25T12:10:43.924Z,4.10
2022-12-25T12:13:21.095Z,3.65
2022-12-25T12:15:50.072Z,3.60
2022-12-25T12:18:21.768Z,3.03
2022-12-25T12:21:07.302Z,4.20
2022-12-25T12:24:01.084Z,3.75
2022-12-25T12:26:34.778Z,2.22
2022-12-25T12:29:03.497Z,2.17
2022-12-25T12:31:43.355Z,1.80
2022-12-25T12:34:26.443Z,2.08
2022-12-25T12:37:06.853Z,3.00
2022-12-25T12:39:38.289Z,1.98
2022-12-25T12:42:18.080Z,2.03
2022-12-25T12:44:46.414Z,2.60
2022-12-25T12:47:37.732Z,1.88
2022-12-25T12:50:05.740Z,2.53
2022-12-25T12:52:35.862Z,2.42
2022-12-25T12:55:07.401Z,2.17
2022-12-25T12:57:40.075Z,2.00
2022-12-25T13:00:18.700Z,2.30
2022-12-25T13:03:13.477Z,2.90
2022-12-25T13:05:48.150Z,2.03
2022-12-25T13:08:33.458Z,2.20
2022-12-25T13:11:25.786Z,3.17
2022-12-25T13:13:55.306Z,3.30
2022-12-25T13:16:33.932Z,2.05
2022-12-25T13:19:06.213Z,2.20
2022-12-25T13:21:34.925Z,2.22
2022-12-25T13:24:04.522Z,2.20
2022-12-25T13:26:31.388Z,2.95
2022-12-25T13:28:58.372Z,2.72
2022-12-25T13:31:27.791Z,2.90
2022-12-25T13:33:58.717Z,1.90
2022-12-25T13:36:30.985Z,3.40
2022-12-25T13:38:59.392Z,2.30
2022-12-25T13:42:01.431Z,4.00
2022-12-25T13:44:31.496Z,3.42
2022-12-25T13:47:15.525Z,2.42
2022-12-25T13:49:42.442Z,2.47
2022-12-25T13:52:15.041Z,3.55
2022-12-25T13:55:00.312Z,7.28
2022-12-25T13:57:31.385Z,5.88
2022-12-25T13:59:59.076Z,3.95
2022-12-25T14:02:32.890Z,2.63
2022-12-25T14:04:59.839Z,3.58
2022-12-25T14:07:27.530Z,3.42
2022-12-25T14:09:58.787Z,1.98
2022-12-25T14:12:28.725Z,1.98
2022-12-25T14:14:57.058Z,2.45
2022-12-25T14:17:24.815Z,3.30
2022-12-25T14:20:05.645Z,3.65
2022-12-25T14:22:36.048Z,12.05
2022-12-25T14:25:03.016Z,11.90
2022-12-25T14:27:32.952Z,2.80
2022-12-25T14:30:00.860Z,4.07
2022-12-25T14:32:31.880Z,5.55
2022-12-25T14:35:06.132Z,3.50
2022-12-25T14:37:34.391Z,4.03
2022-12-25T14:40:26.302Z,6.22
2022-12-25T14:43:04.423Z,7.15
2022-12-25T14:45:38.611Z,10.90
2022-12-25T14:48:25.007Z,19.20
2022-12-25T14:50:58.560Z,25.08
2022-12-25T14:53:33.674Z,17.45
2022-12-25T14:56:01.212Z,7.32
2022-12-25T14:58:31.314Z,6.13
2022-12-25T15:01:03.448Z,8.70
2022-12-25T15:03:35.203Z,6.30
2022-12-25T15:06:22.606Z,8.10
2022-12-25T15:09:02.260Z,8.60
2022-12-25T15:11:29.327Z,5.85
2022-12-25T15:13:56.413Z,5.95
2022-12-25T15:16:29.827Z,5.70
2022-12-25T15:18:57.351Z,7.97
2022-12-25T15:21:30.406Z,6.47
2022-12-25T15:23:59.153Z,6.45
2022-12-25T15:26:27.929Z,7.68
2022-12-25T15:28:54.908Z,6.60
2022-12-25T15:31:26.821Z,5.00
2022-12-25T15:33:55.557Z,5.40
2022-12-25T15:36:23.204Z,9.18
2022-12-25T15:38:50.355Z,8.10
2022-12-25T15:41:43.003Z,13.45
2022-12-25T15:44:12.448Z,10.32
2022-12-25T15:46:39.431Z,8.20
2022-12-25T15:49:06.329Z,11.10
2022-12-25T15:51:33.689Z,17.52
2022-12-25T15:54:00.570Z,18.98
2022-12-25T15:56:28.168Z,17.67
2022-12-25T15:58:55.150Z,22.15
2022-12-25T16:01:22.380Z,17.70
2022-12-25T16:03:49.469Z,13.45
2022-12-25T16:06:18.351Z,34.55
2022-12-25T16:08:46.023Z,28.70
2022-12-25T16:11:13.000Z,26.35
2022-12-25T16:13:39.792Z,44.60
2022-12-25T16:16:07.245Z,14.60
2022-12-25T16:18:34.244Z,10.38
2022-12-25T16:21:01.318Z,12.23
2022-12-25T16:23:28.514Z,9.20
2022-12-25T16:25:55.433Z,11.60
2022-12-25T16:28:22.336Z,13.43
2022-12-25T16:30:49.375Z,14.32
2022-12-25T16:33:16.276Z,9.88
2022-12-25T16:35:44.168Z,9.30
2022-12-25T16:38:11.897Z,6.13
2022-12-25T16:40:38.945Z,6.88
2022-12-25T16:43:05.850Z,9.32
2022-12-25T16:45:38.461Z,10.73
2022-12-25T16:48:06.481Z,11.10
2022-12-25T16:50:33.486Z,11.63
2022-12-25T16:53:00.491Z,10.25
2022-12-25T16:55:30.161Z,7.18
2022-12-25T16:57:57.517Z,6.45
2022-12-25T17:00:24.495Z,5.68
2022-12-25T17:02:51.631Z,7.15
2022-12-25T17:05:19.111Z,7.38
2022-12-25T17:07:47.051Z,5.10
2022-12-25T17:10:14.010Z,4.63
2022-12-25T17:12:40.882Z,3.15
2022-12-25T17:15:08.840Z,5.70
2022-12-25T17:17:36.037Z,9.93
2022-12-25T17:20:03.420Z,8.68
2022-12-25T17:22:30.425Z,7.65
2022-12-25T17:24:57.417Z,6.57
2022-12-25T17:27:24.323Z,5.63
2022-12-25T17:29:51.299Z,4.10
2022-12-25T17:32:18.212Z,5.32
2022-12-25T17:34:45.056Z,13.45
2022-12-25T17:37:12.234Z,25.20
2022-12-25T17:39:39.724Z,26.40
2022-12-25T17:42:06.644Z,15.13
2022-12-25T17:44:33.475Z,13.35
2022-12-25T17:47:01.077Z,7.70
2022-12-25T17:49:28.003Z,6.43
2022-12-25T17:51:54.930Z,8.40
2022-12-25T17:54:21.814Z,6.20
2022-12-25T17:56:49.484Z,5.95
2022-12-25T17:59:18.845Z,6.28
2022-12-25T18:01:46.964Z,8.25
2022-12-25T18:04:14.227Z,9.43
2022-12-25T18:06:41.240Z,8.85
2022-12-25T18:09:09.772Z,7.47
2022-12-25T18:11:39.845Z,6.93
2022-12-25T18:14:08.178Z,6.80
2022-12-25T18:16:37.751Z,6.90
2022-12-25T18:19:05.669Z,9.05
2022-12-25T18:21:32.743Z,9.40
2022-12-25T18:24:03.144Z,12.20
2022-12-25T18:26:30.219Z,18.05
2022-12-25T18:28:57.768Z,24.08
2022-12-25T18:31:26.785Z,30.98
2022-12-25T18:33:54.121Z,21.73
2022-12-25T18:36:24.479Z,18.42
2022-12-25T18:38:53.016Z,16.90
2022-12-25T18:41:21.230Z,15.43
2022-12-25T18:43:54.372Z,19.73
2022-12-25T18:46:25.566Z,24.35
2022-12-25T18:48:55.052Z,11.85
2022-12-25T18:51:22.635Z,11.93
2022-12-25T18:53:49.737Z,24.20
2022-12-25T18:56:18.290Z,26.95
2022-12-25T18:58:46.963Z,15.00
2022-12-25T19:01:22.646Z,15.38
2022-12-25T19:03:50.936Z,19.50
2022-12-25T19:06:24.248Z,13.98
2022-12-25T19:08:51.833Z,16.35
2022-12-25T19:11:19.721Z,18.85
2022-12-25T19:13:47.206Z,14.10
2022-12-25T19:16:14.526Z,14.45
2022-12-25T19:18:42.559Z,16.25
2022-12-25T19:21:10.671Z,11.85
2022-12-25T19:23:38.485Z,10.85
2022-12-25T19:26:06.976Z,14.27
2022-12-25T19:28:34.160Z,12.82
2022-12-25T19:31:01.903Z,12.57
2022-12-25T19:33:31.645Z,13.52
2022-12-25T19:36:08.173Z,16.85
2022-12-25T19:38:35.381Z,18.85
2022-12-25T19:41:17.569Z,20.60
2022-12-25T19:43:47.775Z,15.60
2022-12-25T19:46:21.749Z,14.25
2022-12-25T19:48:49.000Z,18.98
2022-12-25T19:51:26.425Z,16.38
2022-12-25T19:53:53.791Z,16.38
2022-12-25T19:56:20.656Z,11.57
2022-12-25T19:58:47.584Z,15.73
2022-12-25T20:01:19.077Z,9.57
2022-12-25T20:03:47.321Z,7.03
2022-12-25T20:06:21.990Z,6.78
2022-12-25T20:08:52.550Z,9.98
2022-12-25T20:11:20.863Z,7.32
2022-12-25T20:13:48.437Z,5.90
2022-12-25T20:16:15.620Z,5.10
2022-12-25T20:18:42.552Z,4.22
2022-12-25T20:21:14.299Z,4.18
2022-12-25T20:23:46.011Z,4.28
2022-12-25T20:26:14.959Z,3.00
2022-12-25T20:28:42.454Z,2.95
2022-12-25T20:31:14.474Z,3.08
2022-12-25T20:33:41.352Z,3.30
2022-12-25T20:36:08.539Z,2.67
2022-12-25T20:38:37.024Z,2.40
2022-12-25T20:41:31.192Z,2.42
2022-12-25T20:43:58.424Z,2.80
2022-12-25T20:46:26.505Z,3.13
2022-12-25T20:48:54.415Z,3.20
2022-12-25T20:51:23.707Z,2.83
2022-12-25T20:53:51.274Z,2.40
2022-12-25T20:56:21.553Z,2.45
2022-12-25T20:58:52.315Z,2.70
2022-12-25T21:01:19.353Z,2.75
2022-12-25T21:03:46.414Z,3.75
2022-12-25T21:06:13.310Z,2.90
2022-12-25T21:08:41.292Z,2.28
2022-12-25T21:11:09.804Z,2.25
2022-12-25T21:13:42.626Z,2.03
2022-12-25T21:18:38.238Z,2.35
2022-12-25T21:21:07.714Z,2.40
2022-12-25T21:23:38.552Z,2.70
2022-12-25T21:26:23.822Z,2.65
2022-12-25T21:28:54.148Z,2.50
2022-12-25T21:31:21.740Z,2.50
2022-12-25T21:33:53.304Z,2.28
2022-12-25T21:36:24.757Z,2.50
2022-12-25T21:38:56.043Z,2.53
2022-12-25T21:41:23.779Z,2.90
2022-12-25T21:43:51.187Z,3.33
2022-12-25T21:46:18.386Z,3.42
2022-12-25T21:48:45.895Z,3.53
2022-12-25T21:51:40.591Z,6.03
2022-12-25T21:54:08.647Z,3.90
2022-12-25T21:56:43.512Z,2.40
2022-12-25T21:59:20.392Z,3.35
2022-12-25T22:01:48.638Z,3.65
2022-12-25T22:04:17.548Z,2.97
2022-12-25T22:07:04.000Z,18.73
2022-12-25T22:09:31.186Z,3.88
2022-12-25T22:12:17.302Z,4.32
2022-12-25T22:14:54.918Z,4.97
2022-12-25T22:17:50.717Z,3.30
2022-12-25T22:20:26.510Z,3.30
2022-12-25T22:22:53.937Z,3.47
2022-12-25T22:25:21.494Z,3.60
2022-12-25T22:27:49.078Z,1.85
2022-12-25T22:30:19.177Z,1.80
2022-12-25T22:32:46.709Z,4.38
2022-12-25T22:35:14.780Z,6.05
2022-12-25T22:37:42.975Z,6.57
2022-12-25T22:40:12.751Z,6.72
2022-12-25T22:42:41.004Z,7.20
2022-12-25T22:45:08.580Z,4.43
2022-12-25T22:47:35.797Z,2.40
2022-12-25T22:50:02.784Z,2.67
2022-12-25T22:52:29.663Z,8.65
2022-12-25T22:54:56.591Z,4.40
2022-12-25T22:57:23.493Z,2.35
2022-12-25T22:59:53.081Z,2.00
2022-12-25T23:02:20.597Z,2.13
2022-12-25T23:04:47.800Z,2.20
2022-12-25T23:07:15.724Z,2.10
2022-12-25T23:09:44.196Z,2.20
2022-12-25T23:12:31.732Z,2.28
2022-12-25T23:14:59.120Z,2.47
2022-12-25T23:17:44.828Z,3.80
2022-12-25T23:20:50.831Z,3.45
2022-12-25T23:23:36.490Z,2.33
2022-12-25T23:26:09.940Z,2.75
2022-12-25T23:28:56.911Z,3.28
2022-12-25T23:31:28.970Z,3.20
2022-12-25T23:33:56.060Z,3.88
2022-12-25T23:36:23.729Z,4.30
2022-12-25T23:38:50.738Z,4.30
2022-12-25T23:41:17.751Z,4.30
2022-12-25T23:43:44.673Z,4.78
2022-12-25T23:46:11.655Z,5.22
2022-12-25T23:48:38.691Z,5.47
2022-12-25T23:51:06.935Z,5.63
2022-12-25T23:53:34.356Z,6.28
2022-12-25T23:56:02.077Z,6.38
2022-12-25T23:58:29.512Z,6.07
